sensor_id;sensor_type;location;lat;lon;timestamp;pressure;altitude;pressure_sealevel;temperature;humidity
69630;BME280;56857;52.212;5.496;2023-11-25T00:00:13;101370.75;;;4.70;100.00
69630;BME280;56857;52.212;5.496;2023-11-25T00:02:38;101364.44;;;4.72;100.00
69630;BME280;56857;52.212;5.496;2023-11-25T00:05:04;101360.13;;;4.71;100.00
69630;BME280;56857;52.212;5.496;2023-11-25T00:07:29;101367.88;;;4.73;100.00
69630;BME280;56857;52.212;5.496;2023-11-25T00:09:55;101366.72;;;4.77;100.00
69630;BME280;56857;52.212;5.496;2023-11-25T00:12:20;101361.22;;;4.80;100.00
69630;BME280;56857;52.212;5.496;2023-11-25T00:14:46;101368.88;;;4.83;100.00
69630;BME280;56857;52.212;5.496;2023-11-25T00:17:11;101366.00;;;4.86;100.00
69630;BME280;56857;52.212;5.496;2023-11-25T00:19:37;101370.06;;;4.90;100.00
69630;BME280;56857;52.212;5.496;2023-11-25T00:22:02;101363.00;;;4.91;100.00
69630;BME280;56857;52.212;5.496;2023-11-25T00:24:27;101357.50;;;4.94;100.00
69630;BME280;56857;52.212;5.496;2023-11-25T00:26:53;101364.44;;;4.95;100.00
69630;BME280;56857;52.212;5.496;2023-11-25T00:29:18;101368.63;;;4.97;100.00
69630;BME280;56857;52.212;5.496;2023-11-25T00:31:53;101373.75;;;4.99;100.00
69630;BME280;56857;52.212;5.496;2023-11-25T00:34:18;101378.88;;;5.00;100.00
69630;BME280;56857;52.212;5.496;2023-11-25T00:36:43;101364.81;;;5.01;100.00
69630;BME280;56857;52.212;5.496;2023-11-25T00:39:09;101371.59;;;5.04;100.00
69630;BME280;56857;52.212;5.496;2023-11-25T00:41:34;101375.91;;;5.05;100.00
69630;BME280;56857;52.212;5.496;2023-11-25T00:43:59;101374.81;;;5.07;100.00
69630;BME280;56857;52.212;5.496;2023-11-25T00:46:25;101372.19;;;5.07;100.00
69630;BME280;56857;52.212;5.496;2023-11-25T00:48:50;101373.03;;;5.08;100.00
69630;BME280;56857;52.212;5.496;2023-11-25T00:51:15;101376.25;;;5.11;100.00
69630;BME280;56857;52.212;5.496;2023-11-25T00:53:41;101385.72;;;5.14;100.00
69630;BME280;56857;52.212;5.496;2023-11-25T00:56:06;101379.34;;;5.17;100.00
69630;BME280;56857;52.212;5.496;2023-11-25T00:58:32;101372.19;;;5.19;100.00
69630;BME280;56857;52.212;5.496;2023-11-25T01:00:57;101373.03;;;5.19;100.00
69630;BME280;56857;52.212;5.496;2023-11-25T01:03:22;101377.34;;;5.20;100.00
69630;BME280;56857;52.212;5.496;2023-11-25T01:05:48;101378.16;;;5.21;100.00
69630;BME280;56857;52.212;5.496;2023-11-25T01:08:13;101379.72;;;5.23;100.00
69630;BME280;56857;52.212;5.496;2023-11-25T01:10:38;101378.75;;;5.24;100.00
69630;BME280;56857;52.212;5.496;2023-11-25T01:13:04;101373.38;;;5.26;100.00
69630;BME280;56857;52.212;5.496;2023-11-25T01:15:29;101385.56;;;5.27;100.00
69630;BME280;56857;52.212;5.496;2023-11-25T01:17:54;101397.59;;;5.29;100.00
69630;BME280;56857;52.212;5.496;2023-11-25T01:20:20;101384.34;;;5.31;100.00
69630;BME280;56857;52.212;5.496;2023-11-25T01:22:45;101378.13;;;5.32;100.00
69630;BME280;56857;52.212;5.496;2023-11-25T01:25:11;101386.84;;;5.32;100.00
69630;BME280;56857;52.212;5.496;2023-11-25T01:27:37;101389.47;;;5.32;100.00
69630;BME280;56857;52.212;5.496;2023-11-25T01:30:03;101410.50;;;5.32;100.00
69630;BME280;56857;52.212;5.496;2023-11-25T01:32:28;101428.22;;;5.30;100.00
69630;BME280;56857;52.212;5.496;2023-11-25T01:34:53;101420.44;;;5.29;100.00
69630;BME280;56857;52.212;5.496;2023-11-25T01:37:19;101416.97;;;5.28;100.00
69630;BME280;56857;52.212;5.496;2023-11-25T01:39:44;101415.31;;;5.27;100.00
69630;BME280;56857;52.212;5.496;2023-11-25T01:42:10;101412.94;;;5.24;100.00
69630;BME280;56857;52.212;5.496;2023-11-25T01:44:35;101413.75;;;5.25;100.00
69630;BME280;56857;52.212;5.496;2023-11-25T01:47:02;101416.53;;;5.23;100.00
69630;BME280;56857;52.212;5.496;2023-11-25T01:49:27;101412.94;;;5.24;100.00
69630;BME280;56857;52.212;5.496;2023-11-25T01:51:54;101406.72;;;5.25;100.00
69630;BME280;56857;52.212;5.496;2023-11-25T01:54:20;101413.63;;;5.26;100.00
69630;BME280;56857;52.212;5.496;2023-11-25T01:56:50;101406.59;;;5.27;100.00
69630;BME280;56857;52.212;5.496;2023-11-25T01:59:18;101404.91;;;5.26;100.00
69630;BME280;56857;52.212;5.496;2023-11-25T02:01:45;101409.47;;;5.24;100.00
69630;BME280;56857;52.212;5.496;2023-11-25T02:04:10;101413.28;;;5.20;100.00
69630;BME280;56857;52.212;5.496;2023-11-25T02:06:36;101406.59;;;5.16;100.00
69630;BME280;56857;52.212;5.496;2023-11-25T02:09:02;101407.56;;;5.15;100.00
69630;BME280;56857;52.212;5.496;2023-11-25T02:11:27;101409.47;;;5.13;100.00
69630;BME280;56857;52.212;5.496;2023-11-25T02:13:52;101401.94;;;5.08;100.00
69630;BME280;56857;52.212;5.496;2023-11-25T02:16:18;101400.50;;;5.04;100.00
69630;BME280;56857;52.212;5.496;2023-11-25T02:18:43;101403.50;;;4.99;100.00
69630;BME280;56857;52.212;5.496;2023-11-25T02:21:09;101400.28;;;4.96;100.00
69630;BME280;56857;52.212;5.496;2023-11-25T02:23:34;101405.75;;;4.93;100.00
69630;BME280;56857;52.212;5.496;2023-11-25T02:26:01;101393.81;;;4.88;100.00
69630;BME280;56857;52.212;5.496;2023-11-25T02:28:26;101394.16;;;4.84;100.00
69630;BME280;56857;52.212;5.496;2023-11-25T02:30:52;101389.28;;;4.79;100.00
69630;BME280;56857;52.212;5.496;2023-11-25T02:33:17;101387.00;;;4.75;100.00
69630;BME280;56857;52.212;5.496;2023-11-25T02:35:43;101387.47;;;4.69;100.00
69630;BME280;56857;52.212;5.496;2023-11-25T02:38:10;101384.38;;;4.63;100.00
69630;BME280;56857;52.212;5.496;2023-11-25T02:40:35;101384.72;;;4.59;100.00
69630;BME280;56857;52.212;5.496;2023-11-25T02:43:00;101378.03;;;4.55;100.00
69630;BME280;56857;52.212;5.496;2023-11-25T02:45:25;101380.16;;;4.50;100.00
69630;BME280;56857;52.212;5.496;2023-11-25T02:47:51;101374.31;;;4.46;100.00
69630;BME280;56857;52.212;5.496;2023-11-25T02:50:18;101364.16;;;4.41;100.00
69630;BME280;56857;52.212;5.496;2023-11-25T02:52:44;101362.72;;;4.37;100.00
69630;BME280;56857;52.212;5.496;2023-11-25T02:55:10;101372.59;;;4.34;100.00
69630;BME280;56857;52.212;5.496;2023-11-25T02:57:40;101368.31;;;4.33;100.00
69630;BME280;56857;52.212;5.496;2023-11-25T03:00:07;101372.00;;;4.30;100.00
69630;BME280;56857;52.212;5.496;2023-11-25T03:02:32;101367.00;;;4.27;100.00
69630;BME280;56857;52.212;5.496;2023-11-25T03:04:57;101368.06;;;4.25;100.00
69630;BME280;56857;52.212;5.496;2023-11-25T03:07:23;101364.59;;;4.24;100.00
69630;BME280;56857;52.212;5.496;2023-11-25T03:09:48;101367.44;;;4.21;100.00
69630;BME280;56857;52.212;5.496;2023-11-25T03:12:13;101364.00;;;4.21;100.00
69630;BME280;56857;52.212;5.496;2023-11-25T03:14:39;101365.78;;;4.20;100.00
69630;BME280;56857;52.212;5.496;2023-11-25T03:17:04;101360.53;;;4.20;100.00
69630;BME280;56857;52.212;5.496;2023-11-25T03:19:29;101355.53;;;4.17;100.00
69630;BME280;56857;52.212;5.496;2023-11-25T03:21:55;101358.16;;;4.17;100.00
69630;BME280;56857;52.212;5.496;2023-11-25T03:24:20;101360.88;;;4.15;100.00
69630;BME280;56857;52.212;5.496;2023-11-25T03:26:45;101366.94;;;4.16;100.00
69630;BME280;56857;52.212;5.496;2023-11-25T03:29:11;101372.94;;;4.18;100.00
69630;BME280;56857;52.212;5.496;2023-11-25T03:31:42;101377.94;;;4.21;100.00
69630;BME280;56857;52.212;5.496;2023-11-25T03:34:08;101373.53;;;4.22;100.00
69630;BME280;56857;52.212;5.496;2023-11-25T03:36:33;101361.00;;;4.25;100.00
69630;BME280;56857;52.212;5.496;2023-11-25T03:38:59;101367.72;;;4.29;100.00
69630;BME280;56857;52.212;5.496;2023-11-25T03:41:24;101381.53;;;4.31;100.00
69630;BME280;56857;52.212;5.496;2023-11-25T03:43:49;101380.47;;;4.34;100.00
69630;BME280;56857;52.212;5.496;2023-11-25T03:46:15;101382.88;;;4.37;100.00
69630;BME280;56857;52.212;5.496;2023-11-25T03:48:40;101396.84;;;4.37;100.00
69630;BME280;56857;52.212;5.496;2023-11-25T03:51:05;101395.78;;;4.40;100.00
69630;BME280;56857;52.212;5.496;2023-11-25T03:53:31;101389.47;;;4.43;100.00
69630;BME280;56857;52.212;5.496;2023-11-25T03:55:56;101390.19;;;4.45;100.00
69630;BME280;56857;52.212;5.496;2023-11-25T03:58:22;101386.47;;;4.47;100.00
69630;BME280;56857;52.212;5.496;2023-11-25T04:00:47;101381.22;;;4.47;100.00
69630;BME280;56857;52.212;5.496;2023-11-25T04:03:12;101381.22;;;4.47;100.00
69630;BME280;56857;52.212;5.496;2023-11-25T04:05:37;101384.44;;;4.51;100.00
69630;BME280;56857;52.212;5.496;2023-11-25T04:08:03;101389.59;;;4.52;100.00
69630;BME280;56857;52.212;5.496;2023-11-25T04:10:28;101397.25;;;4.55;100.00
69630;BME280;56857;52.212;5.496;2023-11-25T04:12:54;101393.66;;;4.56;100.00
69630;BME280;56857;52.212;5.496;2023-11-25T04:15:19;101398.81;;;4.58;100.00
69630;BME280;56857;52.212;5.496;2023-11-25T04:17:45;101411.81;;;4.59;100.00
69630;BME280;56857;52.212;5.496;2023-11-25T04:20:10;101396.03;;;4.59;100.00
69630;BME280;56857;52.212;5.496;2023-11-25T04:22:36;101391.53;;;4.61;100.00
69630;BME280;56857;52.212;5.496;2023-11-25T04:25:01;101401.06;;;4.62;100.00
69630;BME280;56857;52.212;5.496;2023-11-25T04:27:26;101385.91;;;4.66;100.00
69630;BME280;56857;52.212;5.496;2023-11-25T04:29:51;101376.13;;;4.68;100.00
69630;BME280;56857;52.212;5.496;2023-11-25T04:32:17;101363.00;;;4.68;100.00
69630;BME280;56857;52.212;5.496;2023-11-25T04:34:42;101365.50;;;4.70;100.00
69630;BME280;56857;52.212;5.496;2023-11-25T04:37:07;101369.81;;;4.71;100.00
69630;BME280;56857;52.212;5.496;2023-11-25T04:39:33;101374.09;;;4.72;100.00
69630;BME280;56857;52.212;5.496;2023-11-25T04:41:58;101380.19;;;4.72;100.00
69630;BME280;56857;52.212;5.496;2023-11-25T04:44:23;101373.28;;;4.71;100.00
69630;BME280;56857;52.212;5.496;2023-11-25T04:46:49;101368.38;;;4.67;100.00
69630;BME280;56857;52.212;5.496;2023-11-25T04:49:14;101366.59;;;4.67;100.00
69630;BME280;56857;52.212;5.496;2023-11-25T04:51:39;101368.25;;;4.68;100.00
69630;BME280;56857;52.212;5.496;2023-11-25T04:54:05;101354.06;;;4.71;100.00
69630;BME280;56857;52.212;5.496;2023-11-25T04:56:30;101354.88;;;4.71;100.00
69630;BME280;56857;52.212;5.496;2023-11-25T04:58:56;101352.25;;;4.71;100.00
69630;BME280;56857;52.212;5.496;2023-11-25T05:01:21;101340.94;;;4.71;100.00
69630;BME280;56857;52.212;5.496;2023-11-25T05:03:47;101354.16;;;4.69;100.00
69630;BME280;56857;52.212;5.496;2023-11-25T05:06:12;101345.69;;;4.65;100.00
69630;BME280;56857;52.212;5.496;2023-11-25T05:08:37;101345.00;;;4.63;100.00
69630;BME280;56857;52.212;5.496;2023-11-25T05:11:03;101336.38;;;4.61;100.00
69630;BME280;56857;52.212;5.496;2023-11-25T05:13:28;101336.63;;;4.58;100.00
69630;BME280;56857;52.212;5.496;2023-11-25T05:15:54;101348.09;;;4.57;100.00
69630;BME280;56857;52.212;5.496;2023-11-25T05:18:19;101342.09;;;4.55;100.00
69630;BME280;56857;52.212;5.496;2023-11-25T05:20:45;101347.34;;;4.55;100.00
69630;BME280;56857;52.212;5.496;2023-11-25T05:23:10;101336.84;;;4.55;100.00
69630;BME280;56857;52.212;5.496;2023-11-25T05:25:35;101336.97;;;4.54;100.00
69630;BME280;56857;52.212;5.496;2023-11-25T05:28:01;101343.06;;;4.54;100.00
69630;BME280;56857;52.212;5.496;2023-11-25T05:30:26;101340.44;;;4.54;100.00
69630;BME280;56857;52.212;5.496;2023-11-25T05:32:51;101341.50;;;4.52;100.00
69630;BME280;56857;52.212;5.496;2023-11-25T05:35:17;101324.19;;;4.49;100.00
69630;BME280;56857;52.212;5.496;2023-11-25T05:37:42;101323.47;;;4.47;100.00
69630;BME280;56857;52.212;5.496;2023-11-25T05:40:08;101323.59;;;4.46;100.00
69630;BME280;56857;52.212;5.496;2023-11-25T05:42:33;101313.19;;;4.44;100.00
69630;BME280;56857;52.212;5.496;2023-11-25T05:44:58;101308.91;;;4.43;100.00
69630;BME280;56857;52.212;5.496;2023-11-25T05:47:24;101303.81;;;4.41;100.00
69630;BME280;56857;52.212;5.496;2023-11-25T05:49:49;101314.31;;;4.41;100.00
69630;BME280;56857;52.212;5.496;2023-11-25T05:52:14;101312.75;;;4.39;100.00
69630;BME280;56857;52.212;5.496;2023-11-25T05:54:40;101314.63;;;4.37;100.00
69630;BME280;56857;52.212;5.496;2023-11-25T05:57:05;101313.81;;;4.36;100.00
69630;BME280;56857;52.212;5.496;2023-11-25T05:59:30;101312.13;;;4.35;100.00
69630;BME280;56857;52.212;5.496;2023-11-25T06:01:56;101311.28;;;4.35;100.00
69630;BME280;56857;52.212;5.496;2023-11-25T06:04:21;101308.78;;;4.33;100.00
69630;BME280;56857;52.212;5.496;2023-11-25T06:06:46;101305.44;;;4.31;100.00
69630;BME280;56857;52.212;5.496;2023-11-25T06:09:12;101306.41;;;4.30;100.00
69630;BME280;56857;52.212;5.496;2023-11-25T06:11:38;101297.69;;;4.30;100.00
69630;BME280;56857;52.212;5.496;2023-11-25T06:14:03;101303.19;;;4.27;100.00
69630;BME280;56857;52.212;5.496;2023-11-25T06:16:29;101301.38;;;4.27;100.00
69630;BME280;56857;52.212;5.496;2023-11-25T06:18:54;101304.84;;;4.28;100.00
69630;BME280;56857;52.212;5.496;2023-11-25T06:21:20;101309.25;;;4.27;100.00
69630;BME280;56857;52.212;5.496;2023-11-25T06:23:46;101309.97;;;4.29;100.00
69630;BME280;56857;52.212;5.496;2023-11-25T06:26:12;101320.34;;;4.31;100.00
69630;BME280;56857;52.212;5.496;2023-11-25T06:28:41;101333.38;;;4.32;100.00
69630;BME280;56857;52.212;5.496;2023-11-25T06:31:14;101340.16;;;4.35;100.00
69630;BME280;56857;52.212;5.496;2023-11-25T06:33:40;101331.34;;;4.36;100.00
69630;BME280;56857;52.212;5.496;2023-11-25T06:36:06;101316.44;;;4.36;100.00
69630;BME280;56857;52.212;5.496;2023-11-25T06:38:32;101305.69;;;4.39;100.00
69630;BME280;56857;52.212;5.496;2023-11-25T06:40:57;101309.06;;;4.41;100.00
69630;BME280;56857;52.212;5.496;2023-11-25T06:43:23;101302.69;;;4.44;100.00
69630;BME280;56857;52.212;5.496;2023-11-25T06:45:48;101297.34;;;4.46;100.00
69630;BME280;56857;52.212;5.496;2023-11-25T06:48:17;101296.28;;;4.48;100.00
69630;BME280;56857;52.212;5.496;2023-11-25T06:50:42;101302.97;;;4.52;100.00
69630;BME280;56857;52.212;5.496;2023-11-25T06:53:07;101298.66;;;4.51;100.00
69630;BME280;56857;52.212;5.496;2023-11-25T06:55:33;101300.44;;;4.51;100.00
69630;BME280;56857;52.212;5.496;2023-11-25T06:57:58;101304.75;;;4.52;100.00
69630;BME280;56857;52.212;5.496;2023-11-25T07:00:23;101310.94;;;4.51;100.00
69630;BME280;56857;52.212;5.496;2023-11-25T07:02:49;101315.13;;;4.53;100.00
69630;BME280;56857;52.212;5.496;2023-11-25T07:05:14;101313.22;;;4.55;100.00
69630;BME280;56857;52.212;5.496;2023-11-25T07:07:40;101311.31;;;4.57;100.00
69630;BME280;56857;52.212;5.496;2023-11-25T07:10:06;101309.41;;;4.59;100.00
69630;BME280;56857;52.212;5.496;2023-11-25T07:12:31;101314.53;;;4.61;100.00
69630;BME280;56857;52.212;5.496;2023-11-25T07:14:57;101307.50;;;4.61;100.00
69630;BME280;56857;52.212;5.496;2023-11-25T07:17:22;101304.88;;;4.61;100.00
69630;BME280;56857;52.212;5.496;2023-11-25T07:19:47;101300.44;;;4.62;100.00
69630;BME280;56857;52.212;5.496;2023-11-25T07:22:13;101298.91;;;4.59;100.00
69630;BME280;56857;52.212;5.496;2023-11-25T07:24:38;101301.66;;;4.58;100.00
69630;BME280;56857;52.212;5.496;2023-11-25T07:27:03;101309.53;;;4.58;100.00
69630;BME280;56857;52.212;5.496;2023-11-25T07:29:29;101308.56;;;4.59;100.00
69630;BME280;56857;52.212;5.496;2023-11-25T07:31:54;101306.91;;;4.58;100.00
69630;BME280;56857;52.212;5.496;2023-11-25T07:34:19;101297.34;;;4.57;100.00
69630;BME280;56857;52.212;5.496;2023-11-25T07:36:45;101300.81;;;4.57;100.00
69630;BME280;56857;52.212;5.496;2023-11-25T07:39:10;101291.97;;;4.58;100.00
69630;BME280;56857;52.212;5.496;2023-11-25T07:41:35;101291.16;;;4.58;100.00
69630;BME280;56857;52.212;5.496;2023-11-25T07:44:01;101298.78;;;4.61;100.00
69630;BME280;56857;52.212;5.496;2023-11-25T07:46:26;101299.63;;;4.61;100.00
69630;BME280;56857;52.212;5.496;2023-11-25T07:48:51;101296.63;;;4.66;100.00
69630;BME280;56857;52.212;5.496;2023-11-25T07:51:17;101296.16;;;4.72;100.00
69630;BME280;56857;52.212;5.496;2023-11-25T07:53:42;101301.06;;;4.77;100.00
69630;BME280;56857;52.212;5.496;2023-11-25T07:56:07;101304.38;;;4.79;100.00
69630;BME280;56857;52.212;5.496;2023-11-25T07:58:32;101305.94;;;4.81;100.00
69630;BME280;56857;52.212;5.496;2023-11-25T08:00:58;101310.25;;;4.82;100.00
69630;BME280;56857;52.212;5.496;2023-11-25T08:03:23;101300.69;;;4.81;100.00
69630;BME280;56857;52.212;5.496;2023-11-25T08:05:48;101300.69;;;4.81;100.00
69630;BME280;56857;52.212;5.496;2023-11-25T08:08:13;101298.19;;;4.80;100.00
69630;BME280;56857;52.212;5.496;2023-11-25T08:10:39;101301.50;;;4.82;100.00
69630;BME280;56857;52.212;5.496;2023-11-25T08:13:04;101296.16;;;4.83;100.00
69630;BME280;56857;52.212;5.496;2023-11-25T08:15:31;101291.63;;;4.85;100.00
69630;BME280;56857;52.212;5.496;2023-11-25T08:17:56;101301.84;;;4.88;100.00
69630;BME280;56857;52.212;5.496;2023-11-25T08:20:21;101296.25;;;4.93;100.00
69630;BME280;56857;52.212;5.496;2023-11-25T08:22:46;101304.63;;;4.98;100.00
69630;BME280;56857;52.212;5.496;2023-11-25T08:25:12;101291.94;;;5.03;100.00
69630;BME280;56857;52.212;5.496;2023-11-25T08:27:37;101291.34;;;5.11;100.00
69630;BME280;56857;52.212;5.496;2023-11-25T08:30:07;101291.53;;;5.19;100.00
69630;BME280;56857;52.212;5.496;2023-11-25T08:32:32;101286.38;;;5.29;100.00
69630;BME280;56857;52.212;5.496;2023-11-25T08:34:58;101292.69;;;5.38;100.00
69630;BME280;56857;52.212;5.496;2023-11-25T08:37:23;101289.66;;;5.42;100.00
69630;BME280;56857;52.212;5.496;2023-11-25T08:39:48;101305.84;;;5.38;100.00
69630;BME280;56857;52.212;5.496;2023-11-25T08:42:13;101304.53;;;5.32;100.00
69630;BME280;56857;52.212;5.496;2023-11-25T08:44:39;101308.22;;;5.29;100.00
69630;BME280;56857;52.212;5.496;2023-11-25T08:47:04;101324.97;;;5.28;100.00
69630;BME280;56857;52.212;5.496;2023-11-25T08:49:29;101321.75;;;5.25;100.00
69630;BME280;56857;52.212;5.496;2023-11-25T08:51:55;101319.28;;;5.23;100.00
69630;BME280;56857;52.212;5.496;2023-11-25T08:54:20;101311.38;;;5.23;100.00
69630;BME280;56857;52.212;5.496;2023-11-25T08:56:46;101306.13;;;5.23;100.00
69630;BME280;56857;52.212;5.496;2023-11-25T08:59:15;101305.84;;;5.26;100.00
69630;BME280;56857;52.212;5.496;2023-11-25T09:01:41;101298.44;;;5.31;100.00
69630;BME280;56857;52.212;5.496;2023-11-25T09:04:06;101299.03;;;5.35;100.00
69630;BME280;56857;52.212;5.496;2023-11-25T09:06:32;101308.94;;;5.43;100.00
69630;BME280;56857;52.212;5.496;2023-11-25T09:08:57;101302.94;;;5.52;100.00
69630;BME280;56857;52.212;5.496;2023-11-25T09:11:23;101309.72;;;5.54;100.00
69630;BME280;56857;52.212;5.496;2023-11-25T09:13:48;101307.94;;;5.55;100.00
69630;BME280;56857;52.212;5.496;2023-11-25T09:16:14;101319.41;;;5.54;100.00
69630;BME280;56857;52.212;5.496;2023-11-25T09:18:39;101315.13;;;5.53;100.00
69630;BME280;56857;52.212;5.496;2023-11-25T09:21:05;101318.72;;;5.52;100.00
69630;BME280;56857;52.212;5.496;2023-11-25T09:23:30;101317.75;;;5.53;100.00
69630;BME280;56857;52.212;5.496;2023-11-25T09:25:56;101307.88;;;5.66;100.00
69630;BME280;56857;52.212;5.496;2023-11-25T09:28:21;101312.84;;;5.80;100.00
69630;BME280;56857;52.212;5.496;2023-11-25T09:30:46;101307.44;;;5.93;100.00
69630;BME280;56857;52.212;5.496;2023-11-25T09:33:12;101297.81;;;6.03;100.00
69630;BME280;56857;52.212;5.496;2023-11-25T09:35:37;101305.34;;;6.18;100.00
69630;BME280;56857;52.212;5.496;2023-11-25T09:38:02;101300.75;;;6.31;100.00
69630;BME280;56857;52.212;5.496;2023-11-25T09:40:28;101299.13;;;6.40;100.00
69630;BME280;56857;52.212;5.496;2023-11-25T09:42:53;101305.13;;;6.52;100.00
69630;BME280;56857;52.212;5.496;2023-11-25T09:45:20;101306.53;;;6.56;100.00
69630;BME280;56857;52.212;5.496;2023-11-25T09:47:45;101302.28;;;6.64;100.00
69630;BME280;56857;52.212;5.496;2023-11-25T09:50:11;101309.84;;;6.79;100.00
69630;BME280;56857;52.212;5.496;2023-11-25T09:52:48;101322.22;;;6.88;100.00
69630;BME280;56857;52.212;5.496;2023-11-25T09:55:15;101331.06;;;6.87;100.00
69630;BME280;56857;52.212;5.496;2023-11-25T09:57:40;101323.97;;;6.78;100.00
69630;BME280;56857;52.212;5.496;2023-11-25T10:00:06;101316.88;;;6.68;100.00
69630;BME280;56857;52.212;5.496;2023-11-25T10:02:32;101323.50;;;6.63;100.00
69630;BME280;56857;52.212;5.496;2023-11-25T10:04:58;101318.22;;;6.63;100.00
69630;BME280;56857;52.212;5.496;2023-11-25T10:07:23;101315.19;;;6.67;100.00
69630;BME280;56857;52.212;5.496;2023-11-25T10:09:49;101316.63;;;6.71;100.00
69630;BME280;56857;52.212;5.496;2023-11-25T10:12:14;101317.03;;;6.77;100.00
69630;BME280;56857;52.212;5.496;2023-11-25T10:14:40;101311.91;;;6.75;100.00
69630;BME280;56857;52.212;5.496;2023-11-25T10:17:19;101311.91;;;6.75;100.00
69630;BME280;56857;52.212;5.496;2023-11-25T10:19:45;101309.84;;;6.79;100.00
69630;BME280;56857;52.212;5.496;2023-11-25T10:22:11;101308.31;;;6.86;100.00
69630;BME280;56857;52.212;5.496;2023-11-25T10:24:49;101305.84;;;6.84;100.00
69630;BME280;56857;52.212;5.496;2023-11-25T10:27:15;101301.53;;;6.83;100.00
69630;BME280;56857;52.212;5.496;2023-11-25T10:29:40;101297.94;;;6.84;100.00
69630;BME280;56857;52.212;5.496;2023-11-25T10:32:10;101291.69;;;6.85;100.00
69630;BME280;56857;52.212;5.496;2023-11-25T10:34:35;101286.69;;;6.82;100.00
69630;BME280;56857;52.212;5.496;2023-11-25T10:37:02;101286.38;;;6.76;100.00
69630;BME280;56857;52.212;5.496;2023-11-25T10:39:31;101279.56;;;6.73;100.00
69630;BME280;56857;52.212;5.496;2023-11-25T10:41:57;101283.19;;;6.72;100.00
69630;BME280;56857;52.212;5.496;2023-11-25T10:44:24;101287.34;;;6.74;100.00
69630;BME280;56857;52.212;5.496;2023-11-25T10:46:50;101284.84;;;6.73;100.00
69630;BME280;56857;52.212;5.496;2023-11-25T10:49:15;101284.44;;;6.78;100.00
69630;BME280;56857;52.212;5.496;2023-11-25T10:51:42;101274.50;;;6.81;100.00
69630;BME280;56857;52.212;5.496;2023-11-25T10:54:08;101283.06;;;6.83;100.00
69630;BME280;56857;52.212;5.496;2023-11-25T10:56:35;101281.00;;;6.87;100.00
69630;BME280;56857;52.212;5.496;2023-11-25T10:59:00;101279.50;;;6.84;100.00
69630;BME280;56857;52.212;5.496;2023-11-25T11:01:30;101284.59;;;6.86;100.00
69630;BME280;56857;52.212;5.496;2023-11-25T11:04:12;101269.50;;;6.88;100.00
69630;BME280;56857;52.212;5.496;2023-11-25T11:06:47;101271.72;;;6.92;100.00
69630;BME280;56857;52.212;5.496;2023-11-25T11:09:18;101267.00;;;6.96;100.00
69630;BME280;56857;52.212;5.496;2023-11-25T11:11:49;101262.19;;;7.01;100.00
69630;BME280;56857;52.212;5.496;2023-11-25T11:14:16;101268.00;;;7.05;100.00
69630;BME280;56857;52.212;5.496;2023-11-25T11:19:41;101259.56;;;7.11;100.00
69630;BME280;56857;52.212;5.496;2023-11-25T11:22:10;101260.00;;;7.16;100.00
69630;BME280;56857;52.212;5.496;2023-11-25T11:24:50;101264.84;;;7.20;100.00
69630;BME280;56857;52.212;5.496;2023-11-25T11:29:57;101266.09;;;7.26;100.00
69630;BME280;56857;52.212;5.496;2023-11-25T11:32:32;101261.66;;;7.27;100.00
69630;BME280;56857;52.212;5.496;2023-11-25T11:34:58;101256.25;;;7.28;100.00
69630;BME280;56857;52.212;5.496;2023-11-25T11:37:34;101257.66;;;7.32;100.00
69630;BME280;56857;52.212;5.496;2023-11-25T11:40:00;101255.84;;;7.33;100.00
69630;BME280;56857;52.212;5.496;2023-11-25T11:42:27;101253.91;;;7.35;100.00
69630;BME280;56857;52.212;5.496;2023-11-25T11:45:05;101257.94;;;7.39;100.00
69630;BME280;56857;52.212;5.496;2023-11-25T11:47:31;101250.28;;;7.46;100.00
69630;BME280;56857;52.212;5.496;2023-11-25T11:49:57;101250.84;;;7.49;100.00
69630;BME280;56857;52.212;5.496;2023-11-25T11:52:23;101253.63;;;7.48;100.00
69630;BME280;56857;52.212;5.496;2023-11-25T11:54:48;101246.81;;;7.45;100.00
69630;BME280;56857;52.212;5.496;2023-11-25T11:57:14;101250.44;;;7.44;100.00
69630;BME280;56857;52.212;5.496;2023-11-25T12:00:02;101251.00;;;7.48;100.00
69630;BME280;56857;52.212;5.496;2023-11-25T12:02:31;101250.84;;;7.59;100.00
69630;BME280;56857;52.212;5.496;2023-11-25T12:04:58;101254.72;;;7.64;100.00
69630;BME280;56857;52.212;5.496;2023-11-25T12:07:25;101243.34;;;7.64;100.00
69630;BME280;56857;52.212;5.496;2023-11-25T12:09:50;101246.97;;;7.63;100.00
69630;BME280;56857;52.212;5.496;2023-11-25T12:12:16;101252.25;;;7.63;100.00
69630;BME280;56857;52.212;5.496;2023-11-25T12:14:41;101251.25;;;7.64;100.00
69630;BME280;56857;52.212;5.496;2023-11-25T12:17:07;101257.25;;;7.66;100.00
69630;BME280;56857;52.212;5.496;2023-11-25T12:19:33;101251.97;;;7.66;100.00
69630;BME280;56857;52.212;5.496;2023-11-25T12:21:58;101256.25;;;7.67;100.00
69630;BME280;56857;52.212;5.496;2023-11-25T12:24:23;101251.09;;;7.65;100.00
69630;BME280;56857;52.212;5.496;2023-11-25T12:26:50;101249.31;;;7.66;100.00
69630;BME280;56857;52.212;5.496;2023-11-25T12:29:16;101246.97;;;7.63;100.00
69630;BME280;56857;52.212;5.496;2023-11-25T12:31:43;101253.06;;;7.63;100.00
69630;BME280;56857;52.212;5.496;2023-11-25T12:34:09;101256.25;;;7.67;100.00
69630;BME280;56857;52.212;5.496;2023-11-25T12:36:34;101247.78;;;7.73;100.00
69630;BME280;56857;52.212;5.496;2023-11-25T12:38:59;101256.09;;;7.78;100.00
69630;BME280;56857;52.212;5.496;2023-11-25T12:41:25;101250.53;;;7.81;100.00
69630;BME280;56857;52.212;5.496;2023-11-25T12:44:04;101250.41;;;7.83;100.00
69630;BME280;56857;52.212;5.496;2023-11-25T12:46:29;101249.84;;;7.89;100.00
69630;BME280;56857;52.212;5.496;2023-11-25T12:48:54;101251.22;;;7.93;100.00